Aviation Digital Data Service (ADDS)

Output produced by METARs form (1258 UTC 08 May 2021)
found at http://aviationweather.gov/metar/data/
 
KTYR 081253Z 18008KT 10SM OVC018 18/14 A2998 RMK AO2 SLP147 T01830144 $
KTYR 081202Z 18008KT 10SM BKN016 18/13 A2998 RMK AO2 T01780133 $
KTYR 081120Z 0812/0912 18007KT P6SM FEW250 
     TEMPO 0812/0815 P6SM OVC015 
     FM081700 19019G26KT P6SM BKN250 
     FM090400 17019G25KT P6SM OVC025